createdAt,value
2017-02-12T00:00:07.259Z,1.42
2017-02-12T00:01:07.868Z,1.60
2017-02-12T00:02:07.397Z,1.65
2017-02-12T00:03:07.949Z,1.63
2017-02-12T00:04:07.514Z,1.43
2017-02-12T00:05:08.328Z,1.47
2017-02-12T00:06:08.158Z,1.63
2017-02-12T00:07:07.721Z,1.47
2017-02-12T00:08:07.206Z,1.37
2017-02-12T00:09:07.645Z,1.56
2017-02-12T00:10:07.235Z,1.63
2017-02-12T00:11:07.776Z,1.65
2017-02-12T00:12:07.264Z,1.62
2017-02-12T00:13:07.828Z,1.60
2017-02-12T00:14:07.365Z,1.72
2017-02-12T00:15:07.887Z,1.83
2017-02-12T00:16:07.588Z,1.89
2017-02-12T00:17:07.485Z,2.09
2017-02-12T00:18:08.068Z,1.92
2017-02-12T00:19:07.583Z,2.15
2017-02-12T00:20:08.154Z,1.86
2017-02-12T00:21:07.612Z,1.82
2017-02-12T00:22:07.071Z,2.01
2017-02-12T00:23:07.573Z,2.22
2017-02-12T00:24:08.149Z,2.09
2017-02-12T00:25:08.041Z,2.27
2017-02-12T00:26:07.468Z,2.17
2017-02-12T00:27:07.549Z,2.15
2017-02-12T00:28:09.313Z,2.02
2017-02-12T00:29:07.878Z,2.25
2017-02-12T00:30:07.391Z,2.08
2017-02-12T00:31:07.951Z,2.03
2017-02-12T00:32:07.822Z,1.86
2017-02-12T00:33:07.260Z,1.90
2017-02-12T00:34:07.798Z,1.87
2017-02-12T00:35:07.292Z,1.85
2017-02-12T00:36:07.768Z,1.78
2017-02-12T00:37:07.199Z,1.94
2017-02-12T00:38:07.668Z,2.06
2017-02-12T00:39:07.206Z,2.03
2017-02-12T00:40:07.776Z,1.85
2017-02-12T00:41:07.229Z,2.04
2017-02-12T00:42:07.783Z,1.98
2017-02-12T00:43:07.269Z,1.79
2017-02-12T00:44:07.859Z,1.81
2017-02-12T00:45:07.375Z,1.77
2017-02-12T00:46:07.994Z,1.67
2017-02-12T00:47:07.535Z,1.78
2017-02-12T00:48:08.171Z,1.84
2017-02-12T00:49:08.034Z,1.73
2017-02-12T00:50:07.538Z,1.57
2017-02-12T00:51:08.127Z,1.85
2017-02-12T00:52:07.601Z,1.98
2017-02-12T00:53:07.089Z,1.95
2017-02-12T00:54:07.529Z,1.95
2017-02-12T00:55:07.997Z,1.90
2017-02-12T00:56:07.419Z,1.78
2017-02-12T00:57:07.996Z,1.86
2017-02-12T00:58:07.478Z,1.99
2017-02-12T00:59:08.276Z,1.81
2017-02-12T01:00:07.829Z,1.79
2017-02-12T01:01:07.399Z,1.89
2017-02-12T01:02:07.821Z,1.49
2017-02-12T01:03:08.059Z,1.71
2017-02-12T01:04:07.713Z,1.49
2017-02-12T01:05:07.659Z,1.84
2017-02-12T01:06:07.959Z,2.02
2017-02-12T01:07:07.511Z,2.13
2017-02-12T01:08:07.179Z,2.08
2017-02-12T01:09:07.722Z,2.04
2017-02-12T01:10:07.420Z,1.95
2017-02-12T01:11:08.190Z,1.77
2017-02-12T01:12:07.699Z,1.82
2017-02-12T01:13:07.439Z,1.68
2017-02-12T01:14:08.059Z,1.88
2017-02-12T01:15:07.132Z,1.85
2017-02-12T01:16:07.676Z,1.59
2017-02-12T01:17:07.799Z,1.58
2017-02-12T01:18:07.263Z,1.72
2017-02-12T01:19:07.818Z,1.78
2017-02-12T01:20:07.463Z,1.80
2017-02-12T01:21:07.692Z,1.81
2017-02-12T01:22:07.319Z,1.91
2017-02-12T01:23:07.974Z,2.04
2017-02-12T01:24:07.743Z,1.89
2017-02-12T01:25:07.298Z,1.66
2017-02-12T01:26:07.739Z,1.59
2017-02-12T01:27:07.171Z,1.81
2017-02-12T01:28:07.855Z,1.93
2017-02-12T01:29:07.746Z,1.78
2017-02-12T01:30:07.284Z,1.83
2017-02-12T01:31:07.897Z,1.76
2017-02-12T01:32:07.502Z,1.82
2017-02-12T01:33:07.352Z,1.91
2017-02-12T01:34:07.797Z,1.67
2017-02-12T01:35:07.571Z,1.71
2017-02-12T01:36:07.319Z,1.60
2017-02-12T01:37:07.648Z,1.67
2017-02-12T01:38:08.022Z,1.73
2017-02-12T01:39:07.452Z,1.79
2017-02-12T01:40:07.964Z,1.75
2017-02-12T01:41:08.002Z,1.60
2017-02-12T01:42:07.532Z,1.87
2017-02-12T01:43:07.871Z,1.99
2017-02-12T01:44:07.263Z,1.69
2017-02-12T01:45:07.250Z,1.46
2017-02-12T01:46:07.765Z,1.53
2017-02-12T01:47:07.599Z,1.67
2017-02-12T01:48:07.138Z,1.67
2017-02-12T01:49:07.191Z,2.02
2017-02-12T01:50:07.639Z,2.02
2017-02-12T01:51:07.720Z,1.87
2017-02-12T01:52:07.547Z,2.06
2017-02-12T01:53:08.038Z,2.10
2017-02-12T01:54:07.293Z,2.04
2017-02-12T01:55:07.476Z,2.01
2017-02-12T01:56:07.550Z,2.04
2017-02-12T01:57:07.990Z,2.12
2017-02-12T01:58:07.395Z,1.85
2017-02-12T01:59:07.969Z,1.91
2017-02-12T02:00:07.541Z,2.14
2017-02-12T02:01:08.175Z,1.95
2017-02-12T02:02:07.683Z,1.94
2017-02-12T02:03:07.159Z,1.99
2017-02-12T02:04:07.259Z,1.85
2017-02-12T02:05:07.793Z,1.86
2017-02-12T02:06:07.821Z,1.77
2017-02-12T02:07:07.371Z,1.89
2017-02-12T02:08:07.941Z,1.85
2017-02-12T02:09:07.370Z,1.90
2017-02-12T02:10:07.827Z,1.65
2017-02-12T02:11:07.605Z,1.55
2017-02-12T02:12:07.553Z,1.68
2017-02-12T02:13:08.086Z,1.83
2017-02-12T02:14:08.287Z,1.53
2017-02-12T02:15:07.770Z,1.85
2017-02-12T02:16:07.336Z,1.86
2017-02-12T02:17:08.196Z,2.03
2017-02-12T02:18:07.723Z,1.87
2017-02-12T02:19:07.469Z,2.00
2017-02-12T02:20:08.061Z,2.09
2017-02-12T02:21:07.513Z,1.94
2017-02-12T02:22:07.262Z,1.87
2017-02-12T02:23:08.139Z,1.99
2017-02-12T02:24:07.594Z,1.80
2017-02-12T02:25:07.366Z,1.70
2017-02-12T02:26:07.966Z,1.90
2017-02-12T02:27:07.580Z,1.89
2017-02-12T02:28:07.193Z,1.88
2017-02-12T02:29:07.737Z,2.07
2017-02-12T02:30:07.347Z,1.81
2017-02-12T02:31:07.910Z,1.64
2017-02-12T02:32:08.004Z,1.50
2017-02-12T02:33:07.600Z,1.50
2017-02-12T02:34:07.346Z,1.56
2017-02-12T02:35:07.784Z,1.47
2017-02-12T02:36:07.551Z,1.72
2017-02-12T02:37:08.116Z,1.91
2017-02-12T02:38:07.847Z,1.81
2017-02-12T02:39:07.547Z,1.65
2017-02-12T02:40:08.124Z,1.86
2017-02-12T02:41:07.687Z,1.82
2017-02-12T02:42:07.279Z,1.90
2017-02-12T02:43:07.759Z,1.89
2017-02-12T02:44:07.498Z,1.82
2017-02-12T02:45:07.985Z,1.82
2017-02-12T02:46:07.612Z,1.96
2017-02-12T02:47:07.184Z,2.02
2017-02-12T02:48:08.066Z,1.79
2017-02-12T02:49:07.641Z,1.93
2017-02-12T02:50:07.247Z,1.88
2017-02-12T02:51:07.772Z,1.58
2017-02-12T02:52:07.545Z,1.40
2017-02-12T02:53:08.049Z,1.41
2017-02-12T02:54:07.578Z,1.58
2017-02-12T02:55:08.329Z,1.77
2017-02-12T02:56:07.919Z,1.68
2017-02-12T02:57:07.614Z,1.68
2017-02-12T02:58:07.133Z,2.02
2017-02-12T02:59:07.542Z,1.85
2017-02-12T03:00:08.066Z,1.55
2017-02-12T03:01:07.543Z,1.70
2017-02-12T03:02:08.221Z,1.62
2017-02-12T03:03:07.758Z,1.80
2017-02-12T03:04:07.352Z,1.96
2017-02-12T03:05:08.031Z,1.80
2017-02-12T03:06:07.861Z,1.30
2017-02-12T03:07:07.599Z,1.52
2017-02-12T03:08:07.090Z,1.53
2017-02-12T03:09:07.672Z,1.44
2017-02-12T03:10:07.175Z,1.66
2017-02-12T03:11:07.871Z,1.64
2017-02-12T03:12:07.444Z,1.57
2017-02-12T03:13:07.962Z,1.65
2017-02-12T03:14:07.423Z,1.69
2017-02-12T03:15:09.307Z,1.60
2017-02-12T03:16:07.912Z,1.49
2017-02-12T03:17:07.679Z,1.53
2017-02-12T03:18:07.114Z,1.61
2017-02-12T03:19:07.770Z,1.53
2017-02-12T03:20:07.304Z,1.54
2017-02-12T03:21:07.776Z,1.68
2017-02-12T03:22:07.352Z,1.70
2017-02-12T03:23:07.846Z,1.85
2017-02-12T03:24:07.425Z,1.65
2017-02-12T03:25:07.861Z,1.57
2017-02-12T03:26:07.383Z,1.66
2017-02-12T03:27:07.903Z,1.69
2017-02-12T03:28:07.479Z,1.76
2017-02-12T03:29:07.990Z,1.89
2017-02-12T03:30:07.545Z,1.85
2017-02-12T03:31:08.165Z,1.87
2017-02-12T03:32:07.656Z,1.87
2017-02-12T03:33:07.162Z,1.97
2017-02-12T03:34:07.727Z,1.77
2017-02-12T03:35:07.319Z,1.94
2017-02-12T03:36:07.816Z,1.58
2017-02-12T03:37:07.750Z,1.44
2017-02-12T03:38:07.896Z,1.64
2017-02-12T03:39:07.769Z,1.37
2017-02-12T03:40:07.361Z,1.51
2017-02-12T03:41:07.900Z,1.51
2017-02-12T03:42:07.437Z,1.56
2017-02-12T03:43:07.951Z,1.69
2017-02-12T03:44:07.554Z,1.68
2017-02-12T03:45:08.096Z,1.91
2017-02-12T03:46:08.168Z,1.68
2017-02-12T03:47:07.593Z,1.70
2017-02-12T03:48:07.225Z,1.72
2017-02-12T03:49:08.259Z,1.99
2017-02-12T03:50:07.851Z,1.96
2017-02-12T03:51:07.436Z,1.99
2017-02-12T03:52:07.965Z,1.73
2017-02-12T03:53:07.540Z,1.79
2017-02-12T03:54:08.161Z,2.01
2017-02-12T03:55:07.696Z,1.85
2017-02-12T03:56:07.215Z,1.81
2017-02-12T03:57:07.655Z,1.61
2017-02-12T03:58:07.343Z,1.72
2017-02-12T03:59:07.915Z,1.78
2017-02-12T04:00:07.510Z,1.85
2017-02-12T04:01:08.085Z,1.68
2017-02-12T04:02:07.585Z,1.73
2017-02-12T04:03:08.167Z,1.78
2017-02-12T04:04:07.724Z,1.80
2017-02-12T04:05:07.276Z,1.90
2017-02-12T04:06:07.842Z,1.90
2017-02-12T04:07:07.364Z,1.99
2017-02-12T04:08:07.099Z,1.80
2017-02-12T04:09:07.659Z,1.41
2017-02-12T04:10:07.446Z,1.59
2017-02-12T04:11:08.002Z,1.49
2017-02-12T04:12:07.526Z,1.72
2017-02-12T04:13:07.665Z,1.79
2017-02-12T04:14:07.495Z,1.83
2017-02-12T04:15:08.030Z,1.74
2017-02-12T04:16:07.604Z,1.68
2017-02-12T04:17:07.262Z,1.97
2017-02-12T04:18:07.877Z,1.94
2017-02-12T04:19:07.347Z,2.13
2017-02-12T04:20:07.903Z,1.70
2017-02-12T04:21:07.330Z,1.95
2017-02-12T04:22:07.996Z,2.08
2017-02-12T04:23:07.470Z,2.08
2017-02-12T04:24:07.042Z,1.93
2017-02-12T04:25:07.465Z,2.18
2017-02-12T04:26:07.374Z,1.97
2017-02-12T04:27:07.920Z,2.00
2017-02-12T04:28:07.403Z,1.91
2017-02-12T04:29:07.984Z,1.99
2017-02-12T04:30:07.619Z,2.13
2017-02-12T04:31:07.468Z,2.20
2017-02-12T04:32:08.004Z,2.44
2017-02-12T04:33:07.573Z,2.04
2017-02-12T04:34:08.157Z,2.24
2017-02-12T04:35:07.716Z,2.03
2017-02-12T04:36:07.272Z,1.93
2017-02-12T04:37:07.871Z,2.08
2017-02-12T04:38:07.343Z,2.02
2017-02-12T04:39:07.972Z,1.88
2017-02-12T04:40:07.475Z,2.00
2017-02-12T04:41:08.092Z,1.66
2017-02-12T04:42:07.712Z,1.74
2017-02-12T04:43:09.038Z,1.85
2017-02-12T04:44:07.819Z,2.02
2017-02-12T04:45:07.445Z,2.15
2017-02-12T04:46:07.919Z,2.06
2017-02-12T04:47:07.495Z,2.10
2017-02-12T04:48:08.071Z,2.11
2017-02-12T04:49:07.620Z,1.99
2017-02-12T04:50:07.179Z,2.02
2017-02-12T04:51:07.704Z,1.99
2017-02-12T04:52:07.324Z,1.81
2017-02-12T04:53:07.939Z,1.95
2017-02-12T04:54:07.515Z,2.02
2017-02-12T04:55:08.070Z,1.83
2017-02-12T04:56:07.501Z,1.94
2017-02-12T04:57:08.102Z,1.84
2017-02-12T04:58:07.682Z,2.00
2017-02-12T04:59:07.263Z,1.90
2017-02-12T05:00:07.820Z,2.12
2017-02-12T05:01:07.332Z,2.28
2017-02-12T05:02:08.015Z,2.14
2017-02-12T05:03:07.971Z,2.16
2017-02-12T05:04:07.737Z,1.94
2017-02-12T05:05:07.522Z,2.13
2017-02-12T05:06:08.046Z,1.82
2017-02-12T05:07:07.287Z,1.82
2017-02-12T05:08:07.756Z,1.87
2017-02-12T05:09:07.993Z,1.51
2017-02-12T05:10:07.483Z,1.71
2017-02-12T05:11:07.983Z,1.74
2017-02-12T05:12:07.530Z,1.71
2017-02-12T05:13:08.113Z,1.86
2017-02-12T05:14:07.656Z,1.94
2017-02-12T05:15:07.373Z,1.70
2017-02-12T05:16:08.160Z,1.75
2017-02-12T05:17:07.829Z,1.80
2017-02-12T05:18:07.404Z,1.79
2017-02-12T05:19:07.876Z,1.89
2017-02-12T05:20:07.354Z,1.98
2017-02-12T05:21:07.889Z,1.95
2017-02-12T05:22:07.373Z,1.85
2017-02-12T05:23:07.893Z,1.84
2017-02-12T05:24:07.716Z,1.88
2017-02-12T05:25:09.833Z,1.99
2017-02-12T05:26:07.612Z,1.76
2017-02-12T05:27:07.075Z,1.71
2017-02-12T05:28:07.643Z,2.07
2017-02-12T05:29:07.133Z,2.05
2017-02-12T05:30:07.583Z,2.19
2017-02-12T05:31:07.153Z,2.27
2017-02-12T05:32:07.628Z,2.19
2017-02-12T05:33:07.078Z,2.23
2017-02-12T05:34:07.870Z,2.10
2017-02-12T05:35:07.560Z,2.08
2017-02-12T05:36:08.149Z,1.91
2017-02-12T05:37:07.719Z,2.02
2017-02-12T05:38:07.206Z,1.80
2017-02-12T05:39:07.768Z,1.88
2017-02-12T05:40:07.283Z,1.92
2017-02-12T05:41:07.702Z,1.96
2017-02-12T05:42:07.113Z,2.05
2017-02-12T05:43:07.715Z,1.81
2017-02-12T05:44:07.206Z,1.98
2017-02-12T05:45:07.862Z,1.87
2017-02-12T05:46:07.503Z,1.68
2017-02-12T05:47:09.751Z,1.77
2017-02-12T05:48:08.352Z,1.72
2017-02-12T05:49:07.915Z,1.61
2017-02-12T05:50:07.481Z,1.75
2017-02-12T05:51:08.055Z,1.80
2017-02-12T05:52:07.614Z,1.86
2017-02-12T05:53:07.122Z,1.91
2017-02-12T05:54:07.673Z,1.69
2017-02-12T05:55:07.455Z,1.68
2017-02-12T05:56:07.998Z,1.60
2017-02-12T05:57:07.606Z,1.57
2017-02-12T05:58:07.161Z,1.84
2017-02-12T05:59:07.646Z,1.97
2017-02-12T06:00:07.240Z,1.92
2017-02-12T06:01:07.814Z,1.96
2017-02-12T06:02:07.355Z,1.76
2017-02-12T06:03:07.951Z,1.83
2017-02-12T06:04:07.453Z,2.01
2017-02-12T06:05:07.875Z,1.85
2017-02-12T06:06:07.441Z,1.69
2017-02-12T06:07:08.046Z,2.02
2017-02-12T06:08:07.833Z,1.76
2017-02-12T06:09:07.294Z,1.95
2017-02-12T06:10:07.859Z,2.09
2017-02-12T06:11:07.376Z,1.96
2017-02-12T06:12:07.944Z,2.10
2017-02-12T06:13:07.484Z,2.13
2017-02-12T06:14:08.100Z,2.06
2017-02-12T06:15:07.799Z,1.96
2017-02-12T06:16:07.425Z,2.02
2017-02-12T06:17:08.027Z,2.12
2017-02-12T06:18:07.593Z,2.13
2017-02-12T06:19:07.221Z,2.15
2017-02-12T06:20:07.788Z,1.99
2017-02-12T06:21:07.246Z,2.15
2017-02-12T06:22:07.785Z,2.07
2017-02-12T06:23:07.303Z,2.19
2017-02-12T06:24:07.803Z,2.00
2017-02-12T06:25:07.252Z,2.08
2017-02-12T06:26:07.813Z,2.08
2017-02-12T06:27:07.436Z,1.93
2017-02-12T06:28:07.972Z,2.04
2017-02-12T06:29:07.533Z,1.93
2017-02-12T06:30:08.160Z,2.07
2017-02-12T06:31:07.756Z,2.10
2017-02-12T06:32:07.193Z,2.06
2017-02-12T06:33:07.823Z,1.91
2017-02-12T06:34:07.349Z,1.84
2017-02-12T06:35:07.878Z,1.91
2017-02-12T06:36:07.707Z,1.90
2017-02-12T06:37:07.213Z,2.03
2017-02-12T06:38:07.762Z,1.71
2017-02-12T06:39:07.304Z,1.87
2017-02-12T06:40:07.857Z,1.82
2017-02-12T06:41:07.371Z,1.97
2017-02-12T06:42:07.931Z,1.86
2017-02-12T06:43:07.495Z,1.95
2017-02-12T06:44:08.125Z,1.98
2017-02-12T06:45:07.653Z,1.95
2017-02-12T06:46:07.145Z,1.71
2017-02-12T06:47:08.722Z,1.64
2017-02-12T06:48:08.307Z,1.53
2017-02-12T06:49:07.640Z,1.60
2017-02-12T06:55:10.354Z,2.16
2017-02-12T06:57:09.313Z,2.14
2017-02-12T06:58:08.642Z,2.16
2017-02-12T07:00:02.593Z,2.19
2017-02-12T07:00:08.465Z,1.99
2017-02-12T07:01:08.071Z,1.80
2017-02-12T07:02:07.473Z,1.77
2017-02-12T07:03:07.971Z,1.69
2017-02-12T07:04:07.469Z,1.82
2017-02-12T07:05:07.965Z,1.75
2017-02-12T07:06:08.021Z,1.70
2017-02-12T07:07:07.530Z,1.59
2017-02-12T07:08:08.136Z,1.83
2017-02-12T07:09:07.772Z,1.68
2017-02-12T07:10:07.474Z,1.77
2017-02-12T07:11:08.022Z,1.87
2017-02-12T07:12:07.693Z,1.95
2017-02-12T07:13:07.206Z,1.92
2017-02-12T07:14:07.789Z,1.85
2017-02-12T07:15:07.333Z,2.10
2017-02-12T07:16:07.879Z,2.24
2017-02-12T07:17:07.504Z,2.17
2017-02-12T07:18:08.920Z,2.24
2017-02-12T07:19:07.460Z,2.23
2017-02-12T07:20:08.050Z,2.15
2017-02-12T07:21:07.650Z,2.27
2017-02-12T07:22:07.931Z,2.40
2017-02-12T07:23:07.417Z,2.20
2017-02-12T07:24:07.923Z,2.11
2017-02-12T07:25:07.482Z,2.27
2017-02-12T07:26:08.048Z,2.04
2017-02-12T07:27:07.511Z,2.02
2017-02-12T07:28:08.095Z,1.70
2017-02-12T07:29:07.607Z,2.03
2017-02-12T07:30:07.081Z,2.10
2017-02-12T07:31:07.641Z,2.03
2017-02-12T07:32:07.159Z,1.95
2017-02-12T07:33:07.702Z,1.95
2017-02-12T07:34:07.305Z,2.01
2017-02-12T07:35:07.858Z,2.04
2017-02-12T07:36:08.578Z,2.02
2017-02-12T07:40:00.232Z,2.25
2017-02-12T07:41:08.214Z,2.07
2017-02-12T07:41:17.048Z,2.36
2017-02-12T07:42:07.612Z,2.02
2017-02-12T07:43:07.282Z,2.03
2017-02-12T07:44:07.812Z,2.22
2017-02-12T07:45:07.392Z,2.22
2017-02-12T07:46:07.940Z,2.30
2017-02-12T07:47:07.501Z,2.16
2017-02-12T07:48:08.075Z,2.12
2017-02-12T07:49:07.601Z,2.30
2017-02-12T07:50:07.122Z,2.47
2017-02-12T07:51:07.749Z,2.22
2017-02-12T07:52:07.209Z,1.88
2017-02-12T07:53:08.080Z,1.94
2017-02-12T07:54:07.643Z,2.00
2017-02-12T07:55:07.206Z,1.97
2017-02-12T07:56:08.709Z,1.82
2017-02-12T07:57:08.525Z,2.18
2017-02-12T07:58:07.203Z,1.98
2017-02-12T07:59:07.771Z,2.07
2017-02-12T08:00:07.716Z,1.95
2017-02-12T08:01:07.624Z,1.88
2017-02-12T08:02:07.186Z,1.87
2017-02-12T08:03:08.003Z,2.27
2017-02-12T08:04:07.679Z,2.33
2017-02-12T08:05:08.102Z,2.42
2017-02-12T08:06:07.324Z,2.41
2017-02-12T08:07:07.924Z,2.47
2017-02-12T08:08:07.510Z,2.62
2017-02-12T08:09:08.213Z,2.41
2017-02-12T08:10:07.725Z,2.38
2017-02-12T08:11:07.223Z,2.44
2017-02-12T08:12:07.919Z,2.40
2017-02-12T08:13:07.440Z,2.20
2017-02-12T08:14:08.257Z,2.39
2017-02-12T08:15:07.783Z,2.26
2017-02-12T08:16:07.572Z,2.36
2017-02-12T08:17:08.255Z,2.51
2017-02-12T08:18:07.803Z,2.47
2017-02-12T08:19:07.347Z,2.35
2017-02-12T08:20:07.863Z,2.35
2017-02-12T08:21:07.433Z,2.40
2017-02-12T08:22:07.164Z,2.50
2017-02-12T08:23:07.726Z,2.58
2017-02-12T08:24:07.279Z,2.55
2017-02-12T08:25:07.816Z,2.45
2017-02-12T08:26:07.359Z,2.37
2017-02-12T08:27:08.227Z,2.29
2017-02-12T08:28:07.805Z,2.36
2017-02-12T08:29:07.273Z,2.37
2017-02-12T08:30:07.920Z,2.29
2017-02-12T08:31:07.388Z,2.29
2017-02-12T08:32:07.990Z,2.35
2017-02-12T08:33:07.165Z,2.39
2017-02-12T08:34:07.670Z,2.23
2017-02-12T08:35:07.152Z,2.45
2017-02-12T08:36:08.766Z,2.35
2017-02-12T08:37:07.652Z,2.50
2017-02-12T08:38:07.498Z,2.46
2017-02-12T08:39:08.120Z,2.55
2017-02-12T08:40:07.658Z,2.73
2017-02-12T08:41:07.168Z,2.50
2017-02-12T08:42:07.741Z,2.39
2017-02-12T08:43:07.298Z,2.46
2017-02-12T08:44:07.870Z,2.55
2017-02-12T08:45:07.428Z,2.43
2017-02-12T08:46:07.969Z,2.41
2017-02-12T08:47:07.617Z,2.48
2017-02-12T08:48:07.398Z,2.64
2017-02-12T08:49:07.985Z,2.66
2017-02-12T08:50:07.549Z,2.67
2017-02-12T08:51:08.167Z,2.55
2017-02-12T08:52:07.656Z,2.72
2017-02-12T08:53:07.105Z,2.76
2017-02-12T08:54:07.609Z,2.66
2017-02-12T08:55:07.133Z,2.71
2017-02-12T08:56:07.768Z,2.70
2017-02-12T08:57:07.667Z,2.68
2017-02-12T08:58:08.244Z,2.69
2017-02-12T09:01:07.660Z,2.82
2017-02-12T09:02:07.435Z,2.60
2017-02-12T09:03:07.911Z,2.82
2017-02-12T09:04:07.400Z,2.90
2017-02-12T09:05:07.968Z,2.90
2017-02-12T09:06:07.443Z,2.78
2017-02-12T09:07:08.439Z,2.58
2017-02-12T09:08:08.007Z,2.69
2017-02-12T09:09:07.655Z,2.48
2017-02-12T09:10:07.208Z,2.67
2017-02-12T09:11:07.729Z,2.80
2017-02-12T09:12:07.238Z,2.70
2017-02-12T09:13:07.380Z,2.43
2017-02-12T09:14:07.868Z,2.59
2017-02-12T09:15:07.421Z,2.70
2017-02-12T09:16:08.016Z,2.66
2017-02-12T09:17:07.710Z,2.74
2017-02-12T09:18:07.246Z,2.75
2017-02-12T09:19:07.761Z,2.84
2017-02-12T09:20:07.697Z,2.74
2017-02-12T09:21:07.493Z,2.93
2017-02-12T09:22:08.030Z,2.82
2017-02-12T09:23:07.841Z,2.95
2017-02-12T09:24:07.274Z,3.04
2017-02-12T09:25:07.834Z,2.99
2017-02-12T09:26:07.301Z,2.78
2017-02-12T09:27:07.836Z,2.96
2017-02-12T09:28:07.340Z,2.96
2017-02-12T09:29:08.022Z,3.01
2017-02-12T09:30:07.869Z,2.99
2017-02-12T09:31:07.578Z,2.83
2017-02-12T09:32:07.102Z,2.69
2017-02-12T09:33:07.669Z,2.54
2017-02-12T09:34:07.158Z,2.64
2017-02-12T09:35:07.751Z,2.85
2017-02-12T09:36:07.247Z,2.72
2017-02-12T09:37:07.834Z,2.80
2017-02-12T09:38:07.392Z,2.72
2017-02-12T09:39:08.011Z,2.69
2017-02-12T09:40:07.945Z,2.73
2017-02-12T09:41:07.572Z,2.90
2017-02-12T09:42:08.538Z,2.82
2017-02-12T09:43:08.098Z,2.75
2017-02-12T09:44:07.742Z,2.70
2017-02-12T09:45:08.195Z,2.63
2017-02-12T09:46:07.689Z,2.56
2017-02-12T09:47:08.106Z,2.64
2017-02-12T09:48:08.518Z,2.82
2017-02-12T09:49:08.944Z,2.93
2017-02-12T09:50:07.435Z,2.89
2017-02-12T09:51:07.964Z,2.74
2017-02-12T09:52:08.539Z,2.79
2017-02-12T09:53:08.958Z,3.05
2017-02-12T09:54:08.408Z,2.66
2017-02-12T09:55:08.871Z,2.94
2017-02-12T09:56:08.298Z,2.96
2017-02-12T09:57:08.752Z,2.83
2017-02-12T09:58:08.191Z,3.08
2017-02-12T09:59:08.644Z,3.00
2017-02-12T10:00:08.070Z,3.04
2017-02-12T10:01:08.518Z,2.95
2017-02-12T10:02:08.959Z,2.86
2017-02-12T10:03:08.404Z,3.00
2017-02-12T10:04:08.850Z,3.08
2017-02-12T10:05:08.595Z,2.91
2017-02-12T10:06:08.048Z,2.95
2017-02-12T10:07:08.528Z,3.09
2017-02-12T10:08:08.976Z,3.10
2017-02-12T10:09:07.468Z,2.93
2017-02-12T10:10:07.945Z,2.95
2017-02-12T10:11:07.508Z,2.89
2017-02-12T10:12:08.180Z,3.22
2017-02-12T10:13:08.581Z,3.39
2017-02-12T10:14:08.045Z,3.25
2017-02-12T10:15:08.464Z,3.24
2017-02-12T10:16:08.005Z,3.26
2017-02-12T10:17:08.546Z,3.36
2017-02-12T10:18:08.953Z,3.27
2017-02-12T10:19:08.376Z,3.20
2017-02-12T10:20:07.942Z,3.35
2017-02-12T10:21:07.900Z,3.08
2017-02-12T10:22:08.449Z,2.98
2017-02-12T10:23:08.896Z,3.07
2017-02-12T10:24:08.325Z,3.28
2017-02-12T10:25:08.793Z,3.35
2017-02-12T10:26:08.222Z,3.23
2017-02-12T10:27:08.665Z,3.10
2017-02-12T10:28:07.103Z,3.20
2017-02-12T10:29:07.927Z,3.19
2017-02-12T10:30:07.480Z,3.27
2017-02-12T10:31:08.937Z,3.54
2017-02-12T10:32:07.988Z,3.43
2017-02-12T10:33:07.526Z,3.08
2017-02-12T10:34:08.998Z,3.39
2017-02-12T10:35:08.427Z,3.27
2017-02-12T10:36:08.966Z,3.38
2017-02-12T10:37:08.936Z,3.38
2017-02-12T10:38:09.192Z,3.41
2017-02-12T10:39:08.632Z,3.14
2017-02-12T10:40:08.009Z,3.19
2017-02-12T10:41:07.584Z,3.27
2017-02-12T10:42:07.247Z,3.33
2017-02-12T10:43:08.708Z,3.32
2017-02-12T10:44:08.166Z,3.17
2017-02-12T10:45:08.569Z,3.19
2017-02-12T10:46:09.038Z,3.23
2017-02-12T10:47:08.478Z,3.28
2017-02-12T10:48:08.902Z,3.33
2017-02-12T10:49:08.359Z,3.46
2017-02-12T10:50:08.802Z,3.46
2017-02-12T10:51:08.276Z,3.51
2017-02-12T10:52:08.960Z,3.39
2017-02-12T10:53:08.461Z,3.45
2017-02-12T10:54:08.933Z,3.49
2017-02-12T10:55:07.469Z,3.48
2017-02-12T10:56:09.120Z,3.37
2017-02-12T10:57:08.574Z,3.47
2017-02-12T10:58:09.008Z,3.62
2017-02-12T10:59:08.449Z,3.74
2017-02-12T11:00:08.890Z,3.62
2017-02-12T11:01:07.532Z,3.57
2017-02-12T11:02:08.102Z,3.58
2017-02-12T11:03:08.516Z,3.61
2017-02-12T11:04:08.307Z,3.45
2017-02-12T11:05:08.322Z,3.31
2017-02-12T11:06:08.757Z,3.35
2017-02-12T11:07:08.236Z,3.37
2017-02-12T11:08:08.774Z,3.72
2017-02-12T11:09:08.196Z,3.56
2017-02-12T11:10:08.623Z,3.57
2017-02-12T11:11:07.259Z,3.58
2017-02-12T11:12:08.120Z,3.43
2017-02-12T11:13:08.541Z,3.39
2017-02-12T11:14:08.954Z,3.41
2017-02-12T11:15:08.409Z,3.24
2017-02-12T11:16:08.831Z,3.42
2017-02-12T11:17:08.370Z,3.25
2017-02-12T11:18:08.818Z,3.55
2017-02-12T11:19:08.248Z,3.66
2017-02-12T11:20:08.719Z,3.52
2017-02-12T11:21:07.203Z,3.41
2017-02-12T11:22:07.795Z,3.40
2017-02-12T11:23:07.372Z,3.48
2017-02-12T11:24:07.969Z,3.55
2017-02-12T11:25:07.476Z,3.57
2017-02-12T11:26:08.040Z,3.75
2017-02-12T11:27:07.729Z,3.65
2017-02-12T11:28:07.399Z,3.50
2017-02-12T11:29:07.924Z,3.40
2017-02-12T11:30:07.528Z,3.45
2017-02-12T11:31:08.218Z,3.80
2017-02-12T11:32:07.737Z,3.56
2017-02-12T11:33:07.307Z,3.84
2017-02-12T11:34:07.893Z,3.69
2017-02-12T11:35:07.448Z,3.74
2017-02-12T11:36:07.967Z,3.77
2017-02-12T11:37:07.393Z,3.50
2017-02-12T11:38:08.048Z,3.64
2017-02-12T11:39:07.520Z,3.55
2017-02-12T11:40:08.179Z,3.68
2017-02-12T11:41:07.734Z,3.73
2017-02-12T11:42:07.413Z,3.68
2017-02-12T11:43:08.179Z,3.78
2017-02-12T11:44:07.686Z,3.92
2017-02-12T11:45:07.558Z,3.92
2017-02-12T11:46:08.098Z,3.86
2017-02-12T11:47:07.569Z,3.66
2017-02-12T11:48:08.119Z,3.71
2017-02-12T11:49:07.758Z,3.79
2017-02-12T11:50:07.949Z,3.63
2017-02-12T11:51:07.535Z,3.73
2017-02-12T11:52:08.411Z,3.81
2017-02-12T11:53:07.991Z,3.69
2017-02-12T11:54:07.530Z,3.62
2017-02-12T11:55:08.333Z,3.65
2017-02-12T11:56:07.912Z,3.67
2017-02-12T11:57:07.362Z,3.78
2017-02-12T11:58:08.034Z,3.83
2017-02-12T11:59:07.630Z,3.52
2017-02-12T12:00:07.404Z,3.36
2017-02-12T12:01:07.993Z,3.34
2017-02-12T12:02:08.395Z,3.58
2017-02-12T12:03:07.909Z,3.72
2017-02-12T12:04:07.470Z,3.46
2017-02-12T12:05:08.056Z,3.62
2017-02-12T12:06:07.566Z,3.63
2017-02-12T12:07:08.163Z,3.82
2017-02-12T12:08:07.866Z,3.81
2017-02-12T12:09:07.429Z,3.91
2017-02-12T12:10:08.004Z,3.66
2017-02-12T12:11:07.532Z,3.64
2017-02-12T12:12:08.282Z,3.68
2017-02-12T12:13:17.773Z,3.77
2017-02-12T12:14:07.639Z,3.68
2017-02-12T12:15:07.172Z,3.55
2017-02-12T12:16:07.729Z,3.85
2017-02-12T12:17:07.388Z,3.62
2017-02-12T12:18:07.971Z,3.49
2017-02-12T12:19:07.514Z,3.59
2017-02-12T12:20:07.320Z,3.85
2017-02-12T12:21:08.238Z,3.78
2017-02-12T12:22:07.798Z,3.93
2017-02-12T12:23:08.322Z,3.63
2017-02-12T12:24:08.089Z,3.89
2017-02-12T12:25:07.708Z,3.82
2017-02-12T12:26:07.325Z,3.99
2017-02-12T12:27:07.905Z,4.02
2017-02-12T12:28:07.473Z,3.89
2017-02-12T12:29:08.022Z,3.73
2017-02-12T12:30:07.611Z,3.66
2017-02-12T12:31:07.450Z,3.44
2017-02-12T12:32:08.020Z,3.57
2017-02-12T12:33:07.671Z,3.41
2017-02-12T12:34:07.199Z,3.70
2017-02-12T12:35:07.772Z,3.69
2017-02-12T12:36:07.337Z,3.46
2017-02-12T12:37:07.848Z,3.47
2017-02-12T12:38:07.477Z,3.62
2017-02-12T12:39:08.003Z,3.68
2017-02-12T12:40:07.552Z,3.46
2017-02-12T12:41:08.150Z,3.75
2017-02-12T12:42:07.847Z,3.63
2017-02-12T12:43:07.916Z,3.73
2017-02-12T12:44:07.472Z,3.86
2017-02-12T12:45:07.995Z,3.58
2017-02-12T12:46:07.953Z,3.83
2017-02-12T12:47:07.411Z,3.75
2017-02-12T12:48:07.973Z,3.76
2017-02-12T12:49:07.597Z,3.90
2017-02-12T12:50:07.074Z,3.86
2017-02-12T12:51:07.622Z,3.64
2017-02-12T12:52:07.323Z,3.70
2017-02-12T12:53:07.899Z,3.89
2017-02-12T12:54:07.395Z,3.62
2017-02-12T12:55:07.969Z,3.64
2017-02-12T12:56:07.421Z,3.86
2017-02-12T12:57:08.026Z,3.59
2017-02-12T12:58:07.634Z,3.65
2017-02-12T12:59:07.278Z,3.64
2017-02-12T13:00:07.802Z,3.73
2017-02-12T13:01:07.644Z,3.84
2017-02-12T13:02:07.193Z,3.67
2017-02-12T13:03:07.854Z,3.35
2017-02-12T13:04:07.437Z,3.42
2017-02-12T13:05:08.204Z,3.69
2017-02-12T13:06:07.758Z,3.85
2017-02-12T13:07:07.295Z,3.70
2017-02-12T13:08:07.851Z,3.92
2017-02-12T13:09:07.339Z,3.78
2017-02-12T13:10:07.879Z,3.74
2017-02-12T13:11:07.468Z,3.70
2017-02-12T13:12:08.323Z,3.45
2017-02-12T13:13:20.335Z,3.72
2017-02-12T13:14:07.327Z,3.56
2017-02-12T13:15:07.880Z,3.79
2017-02-12T13:16:07.419Z,3.75
2017-02-12T13:17:08.178Z,3.81
2017-02-12T13:18:07.665Z,3.52
2017-02-12T13:19:07.206Z,3.45
2017-02-12T13:20:07.845Z,3.64
2017-02-12T13:21:08.268Z,3.66
2017-02-12T13:22:07.840Z,3.83
2017-02-12T13:23:07.355Z,3.71
2017-02-12T13:24:07.868Z,3.90
2017-02-12T13:25:07.468Z,3.64
2017-02-12T13:26:08.014Z,3.68
2017-02-12T13:27:07.536Z,3.76
2017-02-12T13:28:08.087Z,3.83